Balch Springs, Texas
Current Conditions -  °F | °C
As of 12:55 AM on Monday 24 Nov 2014 (Local Time) from KHQZ Reporting Station
Clear Clear  
Wind Chill: 44°   Ceiling: Unl
Heat Index: 49°   Visibility: 10mi
Dew Point: 35°   Wind: 12mph
Humidity: 60%   Direction: 320°NW
Pressure: 29.85"   Gusts: 16mph
Location:  32.73°N, 96.62°W
Report Text: KHQZ 240655Z AUTO 32010G14KT 10SM CLR 09/02 A2985 RMK AO1 T00920017
Loading
Personal Weather Stations






























Interactive Weather Map New forecast layout! Learn more

10-Day Weather Forecast

Advertisements
Track Severe Weather on mobile